Terminal Aerodrome Forecast
Issued by NWS

Home | Current Version | Previous Version | Text Only | Print | Product List | Glossary On
Versions: 1 2 3 4 5 6 7 8 9 10 11 12 13 14 15
061
FTPA31 PHFO 291733
TAFHKO
TAF
PHKO 291733Z 2918/3018 08006KT P6SM SKC
     FM292000 23011KT P6SM SCT045 BKN060
     FM300600 13007KT P6SM FEW045 SCT060=

USA.gov is the U.S. government's official web portal to all federal, state and local government web resources and services.